Latest Coastal Weather Observations for St Lawrence

IDQ60701

Issued at 8:32 am EST Wednesday 3 June 2020 (issued every 10 minutes, with the page automatically refreshed every 10 minutes)

About coastal observations | Map of coastal stations | Coastal observations for QLD | Marine services | Other Formats
Station Details ID: 033210 Name: ST LAWRENCE Lat: -22.35 Lon: 149.52 Height: 9.19 m
Data from the previous 72 hours. | See also: Recent months at St Lawrence
Date/Time
EST
Wind Sea
Height
m
Swell Vis
km
Cloud Weather Temp
°C
Press
hPa
Rain since
9am
mm
Dir  Spd
kts
Gust
kts
Height
m
Period
s
Dir
03/08:30am SSE 11 18 - - - - - - - 14.8 1023.8 0.0
03/08:00am S 9 12 - - - - - - - 13.7 1023.6 0.0
03/07:30am S 9 13 - - - - - - - 12.6 1023.4 0.0
03/07:00am S 8 11 - - - - - - - 12.0 1023.0 0.0
03/06:30am S 10 16 - - - - - - - 12.2 1022.7 0.0
03/06:00am S 10 15 - - - - - - - 12.4 1022.2 0.0
03/05:30am S 9 14 - - - - - - - 12.5 1021.9 0.0
03/05:00am SSE 9 13 - - - - - - - 12.5 1021.8 0.0
03/04:30am S 8 13 - - - - - - - 12.7 1021.6 0.0
03/04:00am S 6 8 - - - - - - - 12.2 1021.6 0.0
03/03:30am SSE 7 10 - - - - - - - 12.6 1021.5 0.0
03/03:00am SSE 7 10 - - - - - - - 12.7 1021.4 0.0
03/02:30am SSE 8 13 - - - - - - - 13.2 1021.5 0.0
03/02:00am SSE 7 9 - - - - - - - 12.9 1021.5 0.0
03/01:30am SSE 5 7 - - - - - - - 12.8 1021.7 0.0
03/01:00am SSE 5 7 - - - - - - - 13.0 1022.0 0.0
03/12:30am CALM 0 0 - - - - - - - 9.4 1021.9 0.0
03/12:00am CALM 0 0 - - - - - - - 9.3 1022.0 0.0
 
Date/Time
EST
Wind Sea
Height
m
Swell Vis
km
Cloud Weather Temp
°C
Press
hPa
Rain since
9am
mm
Dir  Spd
kts
Gust
kts
Height
m
Period
s
Dir
02/11:30pm S 3 4 - - - - - - - 10.4 1022.0 0.0
02/11:00pm S 3 5 - - - - - - - 10.6 1022.2 0.0
02/10:30pm S 3 4 - - - - - - - 12.1 1022.3 0.0
02/10:00pm S 5 7 - - - - - - - 14.2 1022.3 0.0
02/09:30pm SSE 5 6 - - - - - - - 13.6 1022.1 0.0
02/09:00pm SSE 4 5 - - - - - - - 14.7 1021.9 0.0
02/08:30pm SE 4 6 - - - - - - - 15.3 1021.5 0.0
02/08:00pm S 3 4 - - - - - - - 15.0 1021.2 0.0
02/07:30pm S 4 5 - - - - - - - 17.1 1020.8 0.0
02/07:00pm SSE 4 5 - - - - - - - 18.3 1020.5 0.0
02/06:30pm SSE 6 9 - - - - - - - 20.1 1020.2 0.0
02/06:00pm SE 5 7 - - - - - - - 20.0 1019.8 0.0
02/05:30pm SSE 6 9 - - - - - - - 21.2 1019.4 0.0
02/05:00pm SSE 7 11 - - - - - - - 22.9 1019.0 0.0
02/04:30pm SSE 8 13 - - - - - - - 23.9 1018.7 0.0
02/04:00pm SSE 9 14 - - - - - - - 24.7 1018.2 0.0
02/03:30pm SSE 7 11 - - - - - - - 25.4 1018.2 0.0
02/03:00pm SSE 7 11 - - - - - - - 25.5 1018.1 0.0
02/02:30pm SE 7 12 - - - - - - - 25.4 1018.0 0.0
02/02:00pm ESE 8 12 - - - - - - - 25.5 1018.2 0.0
02/01:30pm SE 7 11 - - - - - - - 25.8 1018.3 0.0
02/01:00pm SE 7 11 - - - - - - - 25.2 1018.7 0.0
02/12:30pm SSE 8 11 - - - - - - - 25.1 1019.1 0.0
02/12:00pm S 8 13 - - - - - - - 24.4 1019.5 0.0
02/11:30am SSE 9 13 - - - - - - - 23.6 1019.7 0.0
02/11:00am SSE 9 13 - - - - - - - 23.5 1020.0 0.0
02/10:30am SSE 10 15 - - - - - - - 22.7 1020.2 0.0
02/10:00am SSE 9 13 - - - - - - - 22.1 1020.4 0.0
02/09:30am SSE 10 15 - - - - - - - 21.3 1020.6 0.0
02/09:00am SSE 11 15 - - - - - - - 20.4 1020.6 0.0
02/08:30am SSE 6 9 - - - - - - - 19.9 1020.4 0.0
02/08:00am SSE 6 9 - - - - - - - 18.7 1020.4 0.0
02/07:30am SSE 7 10 - - - - - - - 17.0 1019.9 0.0
02/07:00am SSE 7 9 - - - - - - - 16.4 1019.3 0.0
02/06:30am CALM 0 0 - - - - - - - 14.6 1018.7 0.0
02/06:00am CALM 0 0 - - - - - - - 15.0 1018.2 0.0
02/05:30am CALM 0 0 - - - - - - - 15.4 1017.7 0.0
02/05:00am CALM 0 0 - - - - - - - 15.1 1017.4 0.0
02/04:30am SW 1 3 - - - - - - - 15.6 1017.2 0.0
02/04:00am SW 1 3 - - - - - - - 15.9 1017.2 0.0
02/03:30am S 4 5 - - - - - - - 15.6 1016.9 0.0
02/03:00am S 4 6 - - - - - - - 15.6 1016.8 0.0
02/02:30am S 4 5 - - - - - - - 15.5 1016.9 0.0
02/02:00am CALM 0 0 - - - - - - - 15.3 1017.0 0.0
02/01:30am CALM 0 0 - - - - - - - 15.1 1017.0 0.0
02/01:00am CALM 0 0 - - - - - - - 15.3 1017.2 0.0
02/12:30am N 1 3 - - - - - - - 15.7 1017.2 0.0
02/12:00am CALM 0 0 - - - - - - - 15.8 1017.3 0.0
 
Date/Time
EST
Wind Sea
Height
m
Swell Vis
km
Cloud Weather Temp
°C
Press
hPa
Rain since
9am
mm
Dir  Spd
kts
Gust
kts
Height
m
Period
s
Dir
01/11:30pm CALM 0 0 - - - - - - - 15.4 1017.5 0.0
01/11:00pm CALM 0 0 - - - - - - - 15.7 1017.5 0.0
01/10:30pm CALM 0 0 - - - - - - - 16.3 1017.5 0.0
01/10:00pm CALM 0 0 - - - - - - - 16.5 1017.6 0.0
01/09:30pm CALM 0 0 - - - - - - - 16.7 1017.5 0.0
01/09:00pm CALM 0 0 - - - - - - - 17.4 1017.5 0.0
01/08:30pm NNE 2 3 - - - - - - - 17.9 1017.5 0.0
01/08:00pm NNE 3 4 - - - - - - - 17.9 1017.4 0.0
01/07:30pm N 2 5 - - - - - - - 19.1 1017.3 0.0
01/07:00pm CALM 0 4 - - - - - - - 19.2 1017.1 0.0
01/06:30pm CALM 0 0 - - - - - - - 19.6 1016.8 0.0
01/06:00pm NNE 4 5 - - - - - - - 20.8 1016.4 0.0
01/05:30pm NNE 5 8 - - - - - - - 21.6 1016.3 0.0
01/05:00pm NNE 6 9 - - - - - - - 22.6 1016.1 0.0
01/04:30pm NE 8 11 - - - - - - - 23.6 1016.0 0.0
01/04:00pm NNE 8 10 - - - - - - - 24.3 1015.8 0.0
01/03:30pm NNE 9 12 - - - - - - - 24.9 1015.7 0.0
01/03:00pm NNE 9 13 - - - - - - - 25.2 1015.8 0.0
01/02:30pm NNE 9 11 - - - - - - - 25.4 1015.7 0.0
01/02:00pm NE 8 11 - - - - - - - 25.3 1015.9 0.0
01/01:30pm NE 8 12 - - - - - - - 25.6 1016.1 0.0
01/01:00pm NNE 8 11 - - - - - - - 25.6 1016.3 0.0
01/12:30pm NNE 7 9 - - - - - - - 24.9 1016.9 0.0
01/12:00pm NE 5 7 - - - - - - - 25.5 1017.4 0.0
01/11:30am ENE 3 6 - - - - - - - 24.4 1018.0 0.0
01/11:00am NE 4 6 - - - - - - - 23.6 1018.3 0.0
01/10:30am NNE 4 6 - - - - - - - 23.4 1018.7 0.0
01/10:00am CALM 0 0 - - - - - - - 22.2 1019.1 0.0
01/09:30am CALM 0 3 - - - - - - - 21.3 1019.3 0.0
01/09:00am CALM 0 0 - - - - - - - 19.5 1019.5 0.0
01/08:30am CALM 0 2 - - - - - - - 17.7 1019.4 0.0
01/08:00am CALM 0 0 - - - - - - - 16.5 1019.2 0.0
01/07:30am CALM 0 0 - - - - - - - 15.3 1019.0 0.0
01/07:00am CALM 0 0 - - - - - - - 14.6 1018.8 0.0
01/06:30am SSE 3 5 - - - - - - - 14.9 1018.6 0.0
01/06:00am SSE 4 5 - - - - - - - 15.4 1018.2 0.0
01/05:30am SSE 4 5 - - - - - - - 15.5 1018.0 0.0
01/05:00am SSE 4 6 - - - - - - - 15.3 1017.8 0.0
01/04:30am CALM 0 0 - - - - - - - 14.4 1017.8 0.0
01/04:00am CALM 0 0 - - - - - - - 14.0 1017.8 0.0
01/03:30am CALM 0 0 - - - - - - - 13.3 1018.0 0.0
01/03:00am CALM 0 0 - - - - - - - 13.6 1018.0 0.0
01/02:30am CALM 0 0 - - - - - - - 13.5 1018.2 0.0
01/02:00am CALM 0 0 - - - - - - - 14.2 1018.3 0.0
01/01:30am CALM 0 0 - - - - - - - 14.6 1018.8 0.0
01/01:00am CALM 0 0 - - - - - - - 14.7 1018.9 0.0
01/12:30am CALM 0 0 - - - - - - - 14.6 1019.1 0.0
01/12:00am CALM 0 0 - - - - - - - 14.6 1019.0 0.0
 
Date/Time
EST
Wind Sea
Height
m
Swell Vis
km
Cloud Weather Temp
°C
Press
hPa
Rain since
9am
mm
Dir  Spd
kts
Gust
kts
Height
m
Period
s
Dir
31/11:30pm CALM 0 0 - - - - - - - 14.9 1019.2 0.0
31/11:00pm CALM 0 0 - - - - - - - 15.7 1019.5 0.0
31/10:30pm SW 3 4 - - - - - - - 15.6 1019.6 0.0
31/10:00pm CALM 0 0 - - - - - - - 15.4 1019.6 0.0
31/09:30pm CALM 0 0 - - - - - - - 15.8 1019.8 0.0
31/09:00pm CALM 0 0 - - - - - - - 16.5 1019.7 0.0
31/08:30pm CALM 0 0 - - - - - - - 17.2 1019.7 0.0
31/08:00pm CALM 0 0 - - - - - - - 17.4 1019.8 0.0
31/07:30pm CALM 0 0 - - - - - - - 18.2 1019.5 0.0
31/07:00pm CALM 0 3 - - - - - - - 19.0 1019.3 0.0
31/06:30pm N 5 6 - - - - - - - 19.9 1019.0 0.0
31/06:00pm NNE 5 6 - - - - - - - 20.6 1018.6 0.0
31/05:30pm NNE 6 8 - - - - - - - 21.3 1018.5 0.0
31/05:00pm NNE 7 11 - - - - - - - 22.5 1018.1 0.0
31/04:30pm NNE 8 11 - - - - - - - 23.3 1018.0 0.0
31/04:00pm NNE 9 11 - - - - - - - 24.0 1017.7 0.0
31/03:30pm ENE 6 11 - - - - - - - 25.1 1017.7 0.0
31/03:00pm NNE 6 8 - - - - - - - 25.9 1017.7 0.0
31/02:30pm NNE 7 10 - - - - - - - 25.7 1017.9 0.0
31/02:00pm SSW 3 5 - - - - - - - 24.9 1018.1 0.0
31/01:30pm ESE 5 9 - - - - - - - 25.8 1018.3 0.0
31/01:00pm NE 4 6 - - - - - - - 26.3 1018.7 0.0
31/12:30pm NNW 3 7 - - - - - - - 25.9 1019.4 0.0
31/12:00pm S 3 5 - - - - - - - 25.0 1019.8 0.0
31/11:30am ESE 4 7 - - - - - - - 24.0 1020.3 0.0
31/11:00am ESE 5 7 - - - - - - - 23.3 1020.7 0.0
31/10:30am S 4 9 - - - - - - - 22.8 1021.2 0.0
31/10:00am SSW 5 7 - - - - - - - 22.0 1021.4 0.0
31/09:30am SSE 5 7 - - - - - - - 21.0 1021.7 0.0
31/09:00am SSE 6 8 - - - - - - - 19.6 1021.7 0.0

Other formats

Comma delimited format used in spreadsheet applications
http://www.bom.gov.au/fwo/IDQ60701/IDQ60701.95369.axf

JavaScript Object Notation format (JSON) in row-major order
http://www.bom.gov.au/fwo/IDQ60701/IDQ60701.95369.json

Data quality

Most of these data are generated automatically and are frequently updated. Quality checks on data are not normally performed. It is possible for incorrect values to appear. Refer to information at About Latest Weather Observations and please check the disclaimer before using these data.